Parlin Pond Township, Maine
Current Conditions -  °F | °C
As of 4:00 PM on Monday 22 Dec 2014 (Local Time) from CYSC Reporting Station
Overcast Overcast  
Wind Chill: 28°   Ceiling: 3600
Heat Index: 28°   Visibility: 9mi
Dew Point: 27°   Wind: 3mph
Humidity: 93%   Direction: 50°NE
Pressure: 30.31"   Gusts: NA
Location:  45.7142°N, 70.304°W
Report Text: CYSC 222100Z AUTO 05003KT 9SM OVC036 M02/M03 A3031 RMK SLP278
Loading
Personal Weather Stations






























Interactive Weather Map New forecast layout! Learn more

10-Day Weather Forecast

Advertisements
Track Severe Weather on mobile